sensor_id;sensor_type;location;lat;lon;timestamp;pressure;altitude;pressure_sealevel;temperature;humidity
63907;BME280;50075;49.484;11.238;2022-08-18T00:01:14;97337.81;;;22.42;100.00
63907;BME280;50075;49.484;11.238;2022-08-18T00:03:41;97337.66;;;22.62;100.00
63907;BME280;50075;49.484;11.238;2022-08-18T00:06:06;97341.31;;;22.61;100.00
63907;BME280;50075;49.484;11.238;2022-08-18T00:08:32;97351.03;;;22.52;100.00
63907;BME280;50075;49.484;11.238;2022-08-18T00:10:57;97346.69;;;22.51;100.00
63907;BME280;50075;49.484;11.238;2022-08-18T00:13:24;97360.88;;;22.60;100.00
63907;BME280;50075;49.484;11.238;2022-08-18T00:15:49;97385.72;;;22.50;100.00
63907;BME280;50075;49.484;11.238;2022-08-18T00:18:15;97393.38;;;22.18;100.00
63907;BME280;50075;49.484;11.238;2022-08-18T00:20:40;97395.44;;;22.42;100.00
63907;BME280;50075;49.484;11.238;2022-08-18T00:23:06;97382.19;;;23.12;100.00
63907;BME280;50075;49.484;11.238;2022-08-18T00:25:32;97378.88;;;23.36;100.00
63907;BME280;50075;49.484;11.238;2022-08-18T00:27:57;97400.97;;;23.37;100.00
63907;BME280;50075;49.484;11.238;2022-08-18T00:30:23;97415.69;;;23.49;100.00
63907;BME280;50075;49.484;11.238;2022-08-18T00:32:54;97415.69;;;23.49;100.00
63907;BME280;50075;49.484;11.238;2022-08-18T00:35:24;97397.56;;;23.87;100.00
63907;BME280;50075;49.484;11.238;2022-08-18T00:37:55;97405.63;;;24.12;100.00
63907;BME280;50075;49.484;11.238;2022-08-18T00:40:27;97422.06;;;23.99;100.00
63907;BME280;50075;49.484;11.238;2022-08-18T00:42:58;97425.94;;;24.13;100.00
63907;BME280;50075;49.484;11.238;2022-08-18T00:45:29;97417.19;;;24.53;100.00
63907;BME280;50075;49.484;11.238;2022-08-18T00:47:55;97417.72;;;24.81;100.00
63907;BME280;50075;49.484;11.238;2022-08-18T00:53:28;97429.03;;;24.75;100.00
63907;BME280;50075;49.484;11.238;2022-08-18T00:55:59;97427.22;;;24.84;100.00
63907;BME280;50075;49.484;11.238;2022-08-18T00:58:31;97434.50;;;25.23;98.98
63907;BME280;50075;49.484;11.238;2022-08-18T01:00:59;97442.75;;;24.89;100.00
63907;BME280;50075;49.484;11.238;2022-08-18T01:03:28;97445.72;;;25.02;100.00
63907;BME280;50075;49.484;11.238;2022-08-18T01:06:00;97453.41;;;24.72;100.00
63907;BME280;50075;49.484;11.238;2022-08-18T01:08:26;97461.56;;;24.87;100.00
63907;BME280;50075;49.484;11.238;2022-08-18T01:10:52;97466.88;;;24.95;100.00
63907;BME280;50075;49.484;11.238;2022-08-18T01:13:18;97472.53;;;24.59;100.00
63907;BME280;50075;49.484;11.238;2022-08-18T01:15:43;97480.72;;;24.58;100.00
63907;BME280;50075;49.484;11.238;2022-08-18T01:18:11;97482.72;;;24.56;100.00
63907;BME280;50075;49.484;11.238;2022-08-18T01:21:17;97489.56;;;24.67;100.00
63907;BME280;50075;49.484;11.238;2022-08-18T01:24:06;97497.22;;;24.61;100.00
63907;BME280;50075;49.484;11.238;2022-08-18T01:26:35;97482.19;;;24.60;100.00
63907;BME280;50075;49.484;11.238;2022-08-18T01:29:06;97488.75;;;24.91;100.00
63907;BME280;50075;49.484;11.238;2022-08-18T01:31:40;97499.53;;;24.56;100.00
63907;BME280;50075;49.484;11.238;2022-08-18T01:34:08;97496.47;;;24.43;100.00
63907;BME280;50075;49.484;11.238;2022-08-18T01:36:38;97495.19;;;24.04;100.00
63907;BME280;50075;49.484;11.238;2022-08-18T01:39:10;97498.38;;;23.82;100.00
63907;BME280;50075;49.484;11.238;2022-08-18T01:41:36;97506.28;;;23.65;100.00
63907;BME280;50075;49.484;11.238;2022-08-18T01:44:02;97513.38;;;23.31;100.00
63907;BME280;50075;49.484;11.238;2022-08-18T01:46:31;97517.03;;;23.56;100.00
63907;BME280;50075;49.484;11.238;2022-08-18T01:48:58;97509.06;;;23.38;100.00
63907;BME280;50075;49.484;11.238;2022-08-18T01:51:25;97513.69;;;23.27;100.00
63907;BME280;50075;49.484;11.238;2022-08-18T01:53:51;97519.06;;;23.00;100.00
63907;BME280;50075;49.484;11.238;2022-08-18T01:56:16;97513.91;;;22.98;100.00
63907;BME280;50075;49.484;11.238;2022-08-18T01:58:42;97521.03;;;22.62;100.00
63907;BME280;50075;49.484;11.238;2022-08-18T02:01:07;97518.09;;;22.65;100.00
63907;BME280;50075;49.484;11.238;2022-08-18T02:03:40;97521.00;;;22.44;100.00
63907;BME280;50075;49.484;11.238;2022-08-18T02:06:13;97508.75;;;22.05;100.00
63907;BME280;50075;49.484;11.238;2022-08-18T02:08:39;97514.09;;;22.23;100.00
63907;BME280;50075;49.484;11.238;2022-08-18T02:11:06;97517.41;;;22.07;100.00
63907;BME280;50075;49.484;11.238;2022-08-18T02:13:32;97524.31;;;21.90;100.00
63907;BME280;50075;49.484;11.238;2022-08-18T02:15:58;97532.75;;;21.86;100.00
63907;BME280;50075;49.484;11.238;2022-08-18T02:18:26;97523.03;;;22.32;100.00
63907;BME280;50075;49.484;11.238;2022-08-18T02:20:57;97506.69;;;21.99;100.00
63907;BME280;50075;49.484;11.238;2022-08-18T02:23:23;97492.53;;;22.36;100.00
63907;BME280;50075;49.484;11.238;2022-08-18T02:25:49;97492.31;;;22.47;100.00
63907;BME280;50075;49.484;11.238;2022-08-18T02:28:15;97490.41;;;22.12;100.00
63907;BME280;50075;49.484;11.238;2022-08-18T02:30:41;97499.28;;;22.30;100.00
63907;BME280;50075;49.484;11.238;2022-08-18T02:33:08;97503.22;;;22.26;100.00
63907;BME280;50075;49.484;11.238;2022-08-18T02:35:35;97504.66;;;22.11;100.00
63907;BME280;50075;49.484;11.238;2022-08-18T02:38:03;97503.34;;;21.97;100.00
63907;BME280;50075;49.484;11.238;2022-08-18T02:40:29;97494.91;;;22.02;100.00
63907;BME280;50075;49.484;11.238;2022-08-18T02:42:58;97491.19;;;21.94;100.00
63907;BME280;50075;49.484;11.238;2022-08-18T02:45:24;97490.81;;;21.80;100.00
63907;BME280;50075;49.484;11.238;2022-08-18T02:47:53;97495.03;;;21.82;100.00
63907;BME280;50075;49.484;11.238;2022-08-18T02:50:19;97495.84;;;21.83;100.00
63907;BME280;50075;49.484;11.238;2022-08-18T02:52:45;97497.09;;;21.88;100.00
63907;BME280;50075;49.484;11.238;2022-08-18T02:55:10;97498.44;;;22.02;100.00
63907;BME280;50075;49.484;11.238;2022-08-18T02:57:41;97494.16;;;21.91;100.00
63907;BME280;50075;49.484;11.238;2022-08-18T03:00:08;97475.78;;;21.70;100.00
63907;BME280;50075;49.484;11.238;2022-08-18T03:02:36;97486.81;;;21.09;100.00
63907;BME280;50075;49.484;11.238;2022-08-18T03:05:03;97482.28;;;21.38;100.00
63907;BME280;50075;49.484;11.238;2022-08-18T03:07:28;97479.09;;;21.82;100.00
63907;BME280;50075;49.484;11.238;2022-08-18T03:09:54;97488.88;;;21.82;100.00
63907;BME280;50075;49.484;11.238;2022-08-18T03:12:19;97488.28;;;21.88;100.00
63907;BME280;50075;49.484;11.238;2022-08-18T03:14:45;97486.19;;;21.91;100.00
63907;BME280;50075;49.484;11.238;2022-08-18T03:17:10;97485.34;;;21.91;100.00
63907;BME280;50075;49.484;11.238;2022-08-18T03:19:39;97476.59;;;21.81;100.00
63907;BME280;50075;49.484;11.238;2022-08-18T03:22:07;97484.06;;;21.95;100.00
63907;BME280;50075;49.484;11.238;2022-08-18T03:24:33;97477.38;;;21.91;100.00
63907;BME280;50075;49.484;11.238;2022-08-18T03:26:59;97476.84;;;21.87;100.00
63907;BME280;50075;49.484;11.238;2022-08-18T03:29:26;97475.78;;;21.98;100.00
63907;BME280;50075;49.484;11.238;2022-08-18T03:31:51;97473.44;;;21.95;100.00
63907;BME280;50075;49.484;11.238;2022-08-18T03:34:18;97471.22;;;21.90;100.00
63907;BME280;50075;49.484;11.238;2022-08-18T03:36:44;97468.13;;;21.95;100.00
63907;BME280;50075;49.484;11.238;2022-08-18T03:39:11;97470.06;;;22.03;100.00
63907;BME280;50075;49.484;11.238;2022-08-18T03:41:40;97454.84;;;22.23;100.00
63907;BME280;50075;49.484;11.238;2022-08-18T03:44:08;97460.41;;;22.02;100.00
63907;BME280;50075;49.484;11.238;2022-08-18T03:46:33;97453.56;;;21.71;100.00
63907;BME280;50075;49.484;11.238;2022-08-18T03:48:59;97437.75;;;22.35;100.00
63907;BME280;50075;49.484;11.238;2022-08-18T03:51:29;97443.75;;;21.82;100.00
63907;BME280;50075;49.484;11.238;2022-08-18T03:53:57;97449.84;;;21.64;100.00
63907;BME280;50075;49.484;11.238;2022-08-18T03:56:37;97443.69;;;21.64;100.00
63907;BME280;50075;49.484;11.238;2022-08-18T03:59:11;97444.84;;;21.51;100.00
63907;BME280;50075;49.484;11.238;2022-08-18T04:01:40;97442.00;;;22.00;100.00
63907;BME280;50075;49.484;11.238;2022-08-18T04:04:10;97444.72;;;22.36;100.00
63907;BME280;50075;49.484;11.238;2022-08-18T04:06:40;97451.75;;;22.27;100.00
63907;BME280;50075;49.484;11.238;2022-08-18T04:09:08;97455.34;;;21.81;100.00
63907;BME280;50075;49.484;11.238;2022-08-18T04:11:35;97460.63;;;21.53;100.00
63907;BME280;50075;49.484;11.238;2022-08-18T04:14:02;97455.41;;;21.71;100.00
63907;BME280;50075;49.484;11.238;2022-08-18T04:16:29;97458.28;;;21.78;100.00
63907;BME280;50075;49.484;11.238;2022-08-18T04:18:56;97449.41;;;22.42;100.00
63907;BME280;50075;49.484;11.238;2022-08-18T04:21:28;97463.03;;;21.84;100.00
63907;BME280;50075;49.484;11.238;2022-08-18T04:23:56;97458.19;;;22.25;100.00
63907;BME280;50075;49.484;11.238;2022-08-18T04:26:34;97465.72;;;21.74;100.00
63907;BME280;50075;49.484;11.238;2022-08-18T04:29:00;97465.53;;;22.13;100.00
63907;BME280;50075;49.484;11.238;2022-08-18T04:31:26;97473.28;;;21.69;100.00
63907;BME280;50075;49.484;11.238;2022-08-18T04:33:51;97465.28;;;22.06;100.00
63907;BME280;50075;49.484;11.238;2022-08-18T04:36:17;97472.25;;;22.07;100.00
63907;BME280;50075;49.484;11.238;2022-08-18T04:38:43;97468.47;;;22.38;100.00
63907;BME280;50075;49.484;11.238;2022-08-18T04:41:10;97477.63;;;21.98;100.00
63907;BME280;50075;49.484;11.238;2022-08-18T04:43:37;97486.06;;;21.83;100.00
63907;BME280;50075;49.484;11.238;2022-08-18T04:46:02;97483.06;;;22.24;100.00
63907;BME280;50075;49.484;11.238;2022-08-18T04:48:36;97502.41;;;22.16;100.00
63907;BME280;50075;49.484;11.238;2022-08-18T04:51:05;97508.94;;;21.94;100.00
63907;BME280;50075;49.484;11.238;2022-08-18T04:53:32;97505.00;;;21.98;100.00
63907;BME280;50075;49.484;11.238;2022-08-18T04:56:20;97498.09;;;22.43;100.00
63907;BME280;50075;49.484;11.238;2022-08-18T04:59:08;97502.25;;;21.90;100.00
63907;BME280;50075;49.484;11.238;2022-08-18T05:01:40;97500.69;;;21.97;100.00
63907;BME280;50075;49.484;11.238;2022-08-18T05:04:06;97499.13;;;22.32;100.00
63907;BME280;50075;49.484;11.238;2022-08-18T05:06:32;97506.97;;;21.96;100.00
63907;BME280;50075;49.484;11.238;2022-08-18T05:09:00;97503.34;;;22.25;100.00
63907;BME280;50075;49.484;11.238;2022-08-18T05:11:28;97494.44;;;22.26;100.00
63907;BME280;50075;49.484;11.238;2022-08-18T05:13:57;97494.97;;;22.47;100.00
63907;BME280;50075;49.484;11.238;2022-08-18T05:16:23;97492.72;;;22.88;100.00
63907;BME280;50075;49.484;11.238;2022-08-18T05:18:50;97494.22;;;22.73;100.00
63907;BME280;50075;49.484;11.238;2022-08-18T05:21:17;97479.47;;;22.97;100.00
63907;BME280;50075;49.484;11.238;2022-08-18T05:23:44;97485.31;;;23.00;100.00
63907;BME280;50075;49.484;11.238;2022-08-18T05:26:11;97477.75;;;22.69;100.00
63907;BME280;50075;49.484;11.238;2022-08-18T05:28:38;97490.28;;;22.59;100.00
63907;BME280;50075;49.484;11.238;2022-08-18T05:33:33;97484.66;;;23.16;100.00
63907;BME280;50075;49.484;11.238;2022-08-18T05:36:02;97497.13;;;22.98;100.00
63907;BME280;50075;49.484;11.238;2022-08-18T05:38:52;97491.50;;;22.83;100.00
63907;BME280;50075;49.484;11.238;2022-08-18T05:41:25;97491.97;;;23.14;100.00
63907;BME280;50075;49.484;11.238;2022-08-18T05:43:52;97482.28;;;23.31;100.00
63907;BME280;50075;49.484;11.238;2022-08-18T05:46:20;97480.91;;;24.22;100.00
63907;BME280;50075;49.484;11.238;2022-08-18T05:48:49;97467.66;;;24.47;100.00
63907;BME280;50075;49.484;11.238;2022-08-18T05:51:18;97480.03;;;24.05;100.00
63907;BME280;50075;49.484;11.238;2022-08-18T05:53:46;97479.22;;;25.05;100.00
63907;BME280;50075;49.484;11.238;2022-08-18T05:56:33;97474.72;;;25.13;100.00
63907;BME280;50075;49.484;11.238;2022-08-18T05:59:25;97472.09;;;26.57;100.00
63907;BME280;50075;49.484;11.238;2022-08-18T06:02:43;97477.53;;;27.85;100.00
63907;BME280;50075;49.484;11.238;2022-08-18T06:05:19;97480.06;;;28.53;100.00
63907;BME280;50075;49.484;11.238;2022-08-18T06:08:08;97488.13;;;27.49;100.00
63907;BME280;50075;49.484;11.238;2022-08-18T06:10:36;97476.78;;;28.21;100.00
63907;BME280;50075;49.484;11.238;2022-08-18T06:13:02;97488.78;;;28.25;100.00
63907;BME280;50075;49.484;11.238;2022-08-18T06:21:42;97486.72;;;29.00;100.00
63907;BME280;50075;49.484;11.238;2022-08-18T06:35:17;97508.63;;;26.02;100.00
63907;BME280;50075;49.484;11.238;2022-08-18T06:40:36;97495.03;;;27.43;100.00
63907;BME280;50075;49.484;11.238;2022-08-18T06:43:01;97485.44;;;29.18;100.00
63907;BME280;50075;49.484;11.238;2022-08-18T06:45:33;97500.69;;;28.53;100.00
63907;BME280;50075;49.484;11.238;2022-08-18T06:48:11;97493.81;;;29.58;100.00
63907;BME280;50075;49.484;11.238;2022-08-18T06:50:58;97490.28;;;31.36;99.18
63907;BME280;50075;49.484;11.238;2022-08-18T06:53:51;97490.94;;;32.36;84.59
63907;BME280;50075;49.484;11.238;2022-08-18T06:58:50;97490.81;;;32.18;88.50
63907;BME280;50075;49.484;11.238;2022-08-18T07:01:21;97510.16;;;31.88;83.25
63907;BME280;50075;49.484;11.238;2022-08-18T07:03:54;97504.00;;;32.39;80.66
63907;BME280;50075;49.484;11.238;2022-08-18T07:08:48;97497.28;;;30.70;94.01
63907;BME280;50075;49.484;11.238;2022-08-18T07:11:20;97490.72;;;31.73;88.84
63907;BME280;50075;49.484;11.238;2022-08-18T07:13:52;97485.75;;;31.76;89.18
63907;BME280;50075;49.484;11.238;2022-08-18T07:18:52;97480.59;;;31.55;85.87
63907;BME280;50075;49.484;11.238;2022-08-18T07:21:31;97486.09;;;33.47;68.13
63907;BME280;50075;49.484;11.238;2022-08-18T07:24:22;97479.44;;;32.02;75.44
63907;BME280;50075;49.484;11.238;2022-08-18T07:27:05;97472.72;;;31.20;80.72
63907;BME280;50075;49.484;11.238;2022-08-18T07:29:37;97474.69;;;30.71;92.86
63907;BME280;50075;49.484;11.238;2022-08-18T07:32:10;97474.31;;;29.21;100.00
63907;BME280;50075;49.484;11.238;2022-08-18T07:34:45;97474.88;;;30.49;88.95
63907;BME280;50075;49.484;11.238;2022-08-18T07:43:01;97490.94;;;32.36;64.00
63907;BME280;50075;49.484;11.238;2022-08-18T07:45:37;97496.94;;;34.58;56.17
63907;BME280;50075;49.484;11.238;2022-08-18T07:48:17;97500.06;;;33.69;60.55
63907;BME280;50075;49.484;11.238;2022-08-18T08:07:08;97493.25;;;33.35;57.60
63907;BME280;50075;49.484;11.238;2022-08-18T08:12:34;97491.38;;;34.71;54.27
63907;BME280;50075;49.484;11.238;2022-08-18T08:18:03;97493.50;;;34.51;49.11
63907;BME280;50075;49.484;11.238;2022-08-18T08:20:49;97504.19;;;34.46;51.34
63907;BME280;50075;49.484;11.238;2022-08-18T08:23:29;97499.72;;;35.12;48.87
63907;BME280;50075;49.484;11.238;2022-08-18T08:26:22;97493.38;;;34.09;53.06
63907;BME280;50075;49.484;11.238;2022-08-18T08:31:37;97476.38;;;34.99;52.84
63907;BME280;50075;49.484;11.238;2022-08-18T08:36:47;97462.53;;;31.42;65.32
63907;BME280;50075;49.484;11.238;2022-08-18T08:39:20;97466.63;;;31.78;68.71
63907;BME280;50075;49.484;11.238;2022-08-18T08:42:03;97470.63;;;31.55;67.30
63907;BME280;50075;49.484;11.238;2022-08-18T08:44:44;97470.75;;;31.94;67.08
63907;BME280;50075;49.484;11.238;2022-08-18T08:47:20;97463.97;;;31.58;72.49
63907;BME280;50075;49.484;11.238;2022-08-18T08:50:00;97460.28;;;30.30;81.18
63907;BME280;50075;49.484;11.238;2022-08-18T08:52:41;97453.63;;;30.20;77.34
63907;BME280;50075;49.484;11.238;2022-08-18T08:55:17;97456.69;;;30.71;81.44
63907;BME280;50075;49.484;11.238;2022-08-18T08:58:02;97471.44;;;29.51;89.86
63907;BME280;50075;49.484;11.238;2022-08-18T09:00:35;97475.47;;;30.03;86.90
63907;BME280;50075;49.484;11.238;2022-08-18T09:03:45;97460.91;;;28.56;94.18
63907;BME280;50075;49.484;11.238;2022-08-18T09:18:14;97442.06;;;30.26;80.75
63907;BME280;50075;49.484;11.238;2022-08-18T09:23:43;97440.69;;;29.60;84.80
63907;BME280;50075;49.484;11.238;2022-08-18T09:26:37;97430.25;;;32.07;68.05
63907;BME280;50075;49.484;11.238;2022-08-18T09:31:43;97403.88;;;30.64;74.33
63907;BME280;50075;49.484;11.238;2022-08-18T09:34:33;97402.44;;;30.81;75.26
63907;BME280;50075;49.484;11.238;2022-08-18T09:37:22;97403.28;;;30.82;73.79
63907;BME280;50075;49.484;11.238;2022-08-18T09:39:59;97394.72;;;29.76;82.55
63907;BME280;50075;49.484;11.238;2022-08-18T09:43:37;97402.03;;;30.64;77.48
63907;BME280;50075;49.484;11.238;2022-08-18T09:45:51;97400.56;;;30.68;76.62
63907;BME280;50075;49.484;11.238;2022-08-18T09:48:23;97404.72;;;30.84;73.02
63907;BME280;50075;49.484;11.238;2022-08-18T09:50:55;97400.91;;;32.24;62.25
63907;BME280;50075;49.484;11.238;2022-08-18T09:53:34;97391.69;;;33.46;59.41
63907;BME280;50075;49.484;11.238;2022-08-18T09:56:01;97412.38;;;32.51;57.05
63907;BME280;50075;49.484;11.238;2022-08-18T10:01:21;97395.69;;;36.01;46.92
63907;BME280;50075;49.484;11.238;2022-08-18T10:04:29;97383.84;;;33.81;50.75
63907;BME280;50075;49.484;11.238;2022-08-18T10:09:51;97410.47;;;31.61;59.84
63907;BME280;50075;49.484;11.238;2022-08-18T10:12:35;97412.22;;;33.28;55.47
63907;BME280;50075;49.484;11.238;2022-08-18T10:16:07;97408.91;;;33.51;52.09
63907;BME280;50075;49.484;11.238;2022-08-18T10:18:52;97417.16;;;32.81;55.64
63907;BME280;50075;49.484;11.238;2022-08-18T10:21:14;97419.94;;;34.54;49.58
63907;BME280;50075;49.484;11.238;2022-08-18T10:23:58;97417.16;;;32.11;53.66
63907;BME280;50075;49.484;11.238;2022-08-18T10:31:30;97424.28;;;31.92;58.52
63907;BME280;50075;49.484;11.238;2022-08-18T10:34:08;97429.41;;;30.94;60.75
63907;BME280;50075;49.484;11.238;2022-08-18T10:39:43;97433.25;;;32.31;56.99
63907;BME280;50075;49.484;11.238;2022-08-18T10:44:44;97431.47;;;31.19;58.84
63907;BME280;50075;49.484;11.238;2022-08-18T10:47:27;97429.69;;;31.85;59.41
63907;BME280;50075;49.484;11.238;2022-08-18T10:49:54;97419.84;;;32.88;55.15
63907;BME280;50075;49.484;11.238;2022-08-18T10:55:26;97417.78;;;31.47;60.95
63907;BME280;50075;49.484;11.238;2022-08-18T10:58:11;97404.09;;;31.49;59.83
63907;BME280;50075;49.484;11.238;2022-08-18T11:00:54;97399.00;;;31.86;61.22
63907;BME280;50075;49.484;11.238;2022-08-18T11:06:08;97399.97;;;30.93;62.60
63907;BME280;50075;49.484;11.238;2022-08-18T11:08:42;97405.28;;;30.40;66.40
63907;BME280;50075;49.484;11.238;2022-08-18T11:11:10;97406.16;;;31.47;61.53
63907;BME280;50075;49.484;11.238;2022-08-18T11:17:09;97391.50;;;31.95;59.58
63907;BME280;50075;49.484;11.238;2022-08-18T11:19:40;97376.66;;;32.56;58.30
63907;BME280;50075;49.484;11.238;2022-08-18T11:22:20;97375.16;;;33.10;56.81
63907;BME280;50075;49.484;11.238;2022-08-18T11:24:45;97378.22;;;32.70;59.82
63907;BME280;50075;49.484;11.238;2022-08-18T11:27:27;97376.53;;;32.05;60.04
63907;BME280;50075;49.484;11.238;2022-08-18T11:29:54;97353.13;;;32.31;62.32
63907;BME280;50075;49.484;11.238;2022-08-18T11:32:24;97347.28;;;32.66;59.27
63907;BME280;50075;49.484;11.238;2022-08-18T11:37:52;97336.41;;;33.23;58.36
63907;BME280;50075;49.484;11.238;2022-08-18T11:43:18;97338.00;;;32.30;62.36
63907;BME280;50075;49.484;11.238;2022-08-18T11:53:34;97351.47;;;31.92;62.36
63907;BME280;50075;49.484;11.238;2022-08-18T12:03:57;97356.81;;;32.37;54.53
63907;BME280;50075;49.484;11.238;2022-08-18T12:06:28;97346.28;;;32.35;50.05
63907;BME280;50075;49.484;11.238;2022-08-18T12:09:12;97344.16;;;32.69;51.11
63907;BME280;50075;49.484;11.238;2022-08-18T12:11:50;97346.28;;;31.90;56.38
63907;BME280;50075;49.484;11.238;2022-08-18T12:14:21;97322.88;;;32.54;55.77
63907;BME280;50075;49.484;11.238;2022-08-18T12:16:47;97326.81;;;31.81;57.35
63907;BME280;50075;49.484;11.238;2022-08-18T12:19:14;97314.75;;;32.29;55.33
63907;BME280;50075;49.484;11.238;2022-08-18T12:22:00;97321.66;;;31.08;59.04
63907;BME280;50075;49.484;11.238;2022-08-18T12:24:32;97330.06;;;32.03;55.15
63907;BME280;50075;49.484;11.238;2022-08-18T12:26:58;97332.06;;;30.84;57.82
63907;BME280;50075;49.484;11.238;2022-08-18T12:29:25;97339.16;;;31.57;56.61
63907;BME280;50075;49.484;11.238;2022-08-18T12:31:52;97330.66;;;31.60;56.29
63907;BME280;50075;49.484;11.238;2022-08-18T12:34:22;97321.00;;;31.84;55.52
63907;BME280;50075;49.484;11.238;2022-08-18T12:36:50;97322.41;;;31.94;55.16
63907;BME280;50075;49.484;11.238;2022-08-18T12:39:15;97301.06;;;31.92;54.67
63907;BME280;50075;49.484;11.238;2022-08-18T12:41:41;97296.97;;;31.83;54.62
63907;BME280;50075;49.484;11.238;2022-08-18T12:44:06;97296.78;;;31.78;55.95
63907;BME280;50075;49.484;11.238;2022-08-18T12:46:31;97295.81;;;31.65;55.90
63907;BME280;50075;49.484;11.238;2022-08-18T12:48:57;97283.41;;;32.60;52.18
63907;BME280;50075;49.484;11.238;2022-08-18T12:51:23;97289.66;;;32.28;55.05
63907;BME280;50075;49.484;11.238;2022-08-18T12:53:48;97291.47;;;31.96;56.34
63907;BME280;50075;49.484;11.238;2022-08-18T12:58:44;97282.25;;;31.79;56.55
63907;BME280;50075;49.484;11.238;2022-08-18T13:01:09;97279.91;;;31.89;57.15
63907;BME280;50075;49.484;11.238;2022-08-18T13:03:35;97270.94;;;31.63;57.32
63907;BME280;50075;49.484;11.238;2022-08-18T13:06:00;97252.13;;;31.88;57.13
63907;BME280;50075;49.484;11.238;2022-08-18T13:08:26;97248.94;;;32.80;52.36
63907;BME280;50075;49.484;11.238;2022-08-18T13:10:52;97258.25;;;33.03;53.98
63907;BME280;50075;49.484;11.238;2022-08-18T13:13:18;97242.78;;;33.10;51.26
63907;BME280;50075;49.484;11.238;2022-08-18T13:15:45;97237.16;;;32.50;52.38
63907;BME280;50075;49.484;11.238;2022-08-18T13:18:11;97237.06;;;31.29;56.21
63907;BME280;50075;49.484;11.238;2022-08-18T13:20:37;97234.88;;;31.06;56.37
63907;BME280;50075;49.484;11.238;2022-08-18T13:23:03;97238.69;;;30.65;58.30
63907;BME280;50075;49.484;11.238;2022-08-18T13:25:29;97233.03;;;30.93;55.98
63907;BME280;50075;49.484;11.238;2022-08-18T13:27:54;97229.84;;;31.23;54.73
63907;BME280;50075;49.484;11.238;2022-08-18T13:30:21;97234.19;;;31.24;55.09
63907;BME280;50075;49.484;11.238;2022-08-18T13:32:47;97238.47;;;30.53;56.79
63907;BME280;50075;49.484;11.238;2022-08-18T13:35:13;97224.88;;;32.28;52.17
63907;BME280;50075;49.484;11.238;2022-08-18T13:37:39;97231.13;;;31.65;53.06
63907;BME280;50075;49.484;11.238;2022-08-18T13:40:07;97226.03;;;31.82;51.22
63907;BME280;50075;49.484;11.238;2022-08-18T13:42:47;97222.41;;;31.11;52.59
63907;BME280;50075;49.484;11.238;2022-08-18T13:45:14;97221.56;;;31.69;52.86
63907;BME280;50075;49.484;11.238;2022-08-18T13:47:41;97219.63;;;31.38;52.94
63907;BME280;50075;49.484;11.238;2022-08-18T13:50:09;97225.44;;;32.12;50.58
63907;BME280;50075;49.484;11.238;2022-08-18T13:52:36;97221.72;;;31.36;51.44
63907;BME280;50075;49.484;11.238;2022-08-18T13:55:04;97226.81;;;30.86;53.06
63907;BME280;50075;49.484;11.238;2022-08-18T13:57:29;97217.84;;;32.27;49.03
63907;BME280;50075;49.484;11.238;2022-08-18T13:59:56;97220.88;;;32.63;48.04
63907;BME280;50075;49.484;11.238;2022-08-18T14:02:22;97221.72;;;33.00;46.83
63907;BME280;50075;49.484;11.238;2022-08-18T14:04:47;97227.25;;;32.43;49.40
63907;BME280;50075;49.484;11.238;2022-08-18T14:07:13;97229.00;;;32.31;51.48
63907;BME280;50075;49.484;11.238;2022-08-18T14:09:41;97224.94;;;31.90;50.07
63907;BME280;50075;49.484;11.238;2022-08-18T14:12:20;97220.09;;;33.18;47.51
63907;BME280;50075;49.484;11.238;2022-08-18T14:14:46;97203.50;;;32.77;48.54
63907;BME280;50075;49.484;11.238;2022-08-18T14:17:12;97193.50;;;33.33;47.42
63907;BME280;50075;49.484;11.238;2022-08-18T14:19:37;97195.63;;;32.51;49.17
63907;BME280;50075;49.484;11.238;2022-08-18T14:22:21;97188.75;;;33.29;46.71
63907;BME280;50075;49.484;11.238;2022-08-18T14:25:06;97193.72;;;33.32;45.70
63907;BME280;50075;49.484;11.238;2022-08-18T14:27:50;97194.31;;;32.97;45.53
63907;BME280;50075;49.484;11.238;2022-08-18T14:30:15;97188.16;;;33.27;44.82
63907;BME280;50075;49.484;11.238;2022-08-18T14:32:43;97186.88;;;32.55;46.46
63907;BME280;50075;49.484;11.238;2022-08-18T14:35:11;97189.75;;;33.65;44.57
63907;BME280;50075;49.484;11.238;2022-08-18T14:37:37;97188.28;;;32.39;47.02
63907;BME280;50075;49.484;11.238;2022-08-18T14:40:04;97181.38;;;31.61;49.18
63907;BME280;50075;49.484;11.238;2022-08-18T14:42:30;97170.78;;;33.22;47.61
63907;BME280;50075;49.484;11.238;2022-08-18T14:44:55;97163.13;;;32.64;50.01
63907;BME280;50075;49.484;11.238;2022-08-18T14:47:22;97167.94;;;32.37;48.70
63907;BME280;50075;49.484;11.238;2022-08-18T14:49:52;97168.44;;;33.08;47.30
63907;BME280;50075;49.484;11.238;2022-08-18T14:52:17;97163.06;;;32.27;48.91
63907;BME280;50075;49.484;11.238;2022-08-18T14:54:43;97161.31;;;32.14;48.70
63907;BME280;50075;49.484;11.238;2022-08-18T14:57:08;97162.00;;;33.27;46.27
63907;BME280;50075;49.484;11.238;2022-08-18T14:59:35;97146.91;;;32.82;48.34
63907;BME280;50075;49.484;11.238;2022-08-18T15:02:02;97144.72;;;32.36;51.09
63907;BME280;50075;49.484;11.238;2022-08-18T15:04:27;97138.66;;;32.59;49.47
63907;BME280;50075;49.484;11.238;2022-08-18T15:06:52;97145.06;;;32.83;50.42
63907;BME280;50075;49.484;11.238;2022-08-18T15:09:18;97145.66;;;32.67;50.45
63907;BME280;50075;49.484;11.238;2022-08-18T15:11:43;97137.59;;;32.41;52.16
63907;BME280;50075;49.484;11.238;2022-08-18T15:14:09;97150.59;;;31.76;51.98
63907;BME280;50075;49.484;11.238;2022-08-18T15:16:35;97144.38;;;32.69;50.09
63907;BME280;50075;49.484;11.238;2022-08-18T15:19:01;97145.88;;;32.65;51.37